Backworth, United Kingdom
Current Conditions -  °F | °C
As of 6:20 PM on Thursday 23 Oct 2014 (Local Time) from EGNT Reporting Station
Few Clouds Few Clouds  
Wind Chill: 14°   Ceiling: Unl
Heat Index: 14°   Visibility: 6mi
Dew Point: 11°   Wind: 8mph
Humidity: 82%   Direction: 220°SW
Pressure: 29.77"   Gusts: NA
Location:  55.04°N, 1.53°W
Report Text: EGNT 231720Z 22007KT 190V260 9999 FEW020 14/11 Q1008
Loading
Personal Weather Stations






























Interactive Weather Map
Tropical Storm Tracking
New forecast layout! Learn more

10-Day Weather Forecast

Advertisements
Track Severe Weather on mobile